sensor_id;sensor_type;location;lat;lon;timestamp;pressure;altitude;pressure_sealevel;temperature;humidity
61674;BME280;47573;43.832;5.974;2023-04-27T00:05:00;95043.63;;;26.13;50.27
61674;BME280;47573;43.832;5.974;2023-04-27T00:11:42;95045.28;;;26.09;50.27
61674;BME280;47573;43.832;5.974;2023-04-27T00:18:23;95058.94;;;26.14;49.00
61674;BME280;47573;43.832;5.974;2023-04-27T00:25:04;95056.50;;;26.12;49.54
61674;BME280;47573;43.832;5.974;2023-04-27T00:31:46;95044.94;;;26.05;50.30
61674;BME280;47573;43.832;5.974;2023-04-27T00:38:26;95058.94;;;26.14;50.05
61674;BME280;47573;43.832;5.974;2023-04-27T00:45:08;95058.59;;;26.05;50.73
61674;BME280;47573;43.832;5.974;2023-04-27T00:51:50;95048.50;;;26.01;50.17
61674;BME280;47573;43.832;5.974;2023-04-27T00:58:31;95041.09;;;25.96;50.37
61674;BME280;47573;43.832;5.974;2023-04-27T01:05:12;95031.50;;;25.94;50.68
61674;BME280;47573;43.832;5.974;2023-04-27T01:11:53;95036.97;;;25.94;50.43
61674;BME280;47573;43.832;5.974;2023-04-27T01:18:34;95030.66;;;25.93;50.65
61674;BME280;47573;43.832;5.974;2023-04-27T01:25:16;95018.34;;;25.86;50.79
61674;BME280;47573;43.832;5.974;2023-04-27T01:31:56;95013.41;;;25.83;50.87
61674;BME280;47573;43.832;5.974;2023-04-27T01:38:37;95007.13;;;25.82;50.69
61674;BME280;47573;43.832;5.974;2023-04-27T01:45:19;95009.84;;;25.77;50.78
61674;BME280;47573;43.832;5.974;2023-04-27T01:51:59;95005.72;;;25.75;50.79
61674;BME280;47573;43.832;5.974;2023-04-27T01:58:40;95015.53;;;25.71;51.12
61674;BME280;47573;43.832;5.974;2023-04-27T02:05:21;95014.44;;;25.67;50.99
61674;BME280;47573;43.832;5.974;2023-04-27T02:12:02;95013.06;;;25.64;51.39
61674;BME280;47573;43.832;5.974;2023-04-27T02:18:43;95014.44;;;25.62;51.29
61674;BME280;47573;43.832;5.974;2023-04-27T02:25:25;95032.44;;;25.58;51.35
61674;BME280;47573;43.832;5.974;2023-04-27T02:32:05;95034.59;;;25.56;51.59
61674;BME280;47573;43.832;5.974;2023-04-27T02:38:46;95025.59;;;25.55;51.50
61674;BME280;47573;43.832;5.974;2023-04-27T02:45:28;95034.31;;;25.52;51.75
61674;BME280;47573;43.832;5.974;2023-04-27T02:52:08;95035.69;;;25.49;51.52
61674;BME280;47573;43.832;5.974;2023-04-27T02:58:49;95032.38;;;25.47;51.94
61674;BME280;47573;43.832;5.974;2023-04-27T03:05:30;95034.56;;;25.45;51.68
61674;BME280;47573;43.832;5.974;2023-04-27T03:12:11;95032.63;;;25.41;52.08
61674;BME280;47573;43.832;5.974;2023-04-27T03:18:51;95042.72;;;25.40;52.13
61674;BME280;47573;43.832;5.974;2023-04-27T03:25:33;95039.44;;;25.38;51.79
61674;BME280;47573;43.832;5.974;2023-04-27T03:32:14;95039.44;;;25.38;51.97
61674;BME280;47573;43.832;5.974;2023-04-27T03:38:54;95044.91;;;25.38;51.87
61674;BME280;47573;43.832;5.974;2023-04-27T03:45:36;95048.16;;;25.35;52.25
61674;BME280;47573;43.832;5.974;2023-04-27T03:52:16;95048.16;;;25.35;52.02
61674;BME280;47573;43.832;5.974;2023-04-27T03:58:57;95045.41;;;25.35;52.01
61674;BME280;47573;43.832;5.974;2023-04-27T04:05:39;95040.50;;;25.32;52.45
61674;BME280;47573;43.832;5.974;2023-04-27T04:12:19;95047.59;;;25.33;52.14
61674;BME280;47573;43.832;5.974;2023-04-27T04:19:00;95060.69;;;25.31;52.27
61674;BME280;47573;43.832;5.974;2023-04-27T04:25:43;95059.06;;;25.30;52.51
61674;BME280;47573;43.832;5.974;2023-04-27T04:32:24;95059.56;;;25.27;52.80
61674;BME280;47573;43.832;5.974;2023-04-27T04:39:05;95063.38;;;25.26;52.78
61674;BME280;47573;43.832;5.974;2023-04-27T04:45:46;95081.94;;;25.24;52.80
61674;BME280;47573;43.832;5.974;2023-04-27T04:52:27;95075.38;;;25.20;53.19
61674;BME280;47573;43.832;5.974;2023-04-27T04:59:07;95090.13;;;25.19;53.04
61674;BME280;47573;43.832;5.974;2023-04-27T05:05:49;95090.69;;;25.21;53.09
61674;BME280;47573;43.832;5.974;2023-04-27T05:12:30;95098.88;;;25.21;53.41
61674;BME280;47573;43.832;5.974;2023-04-27T05:19:10;95095.59;;;25.19;53.27
61674;BME280;47573;43.832;5.974;2023-04-27T05:25:52;95105.97;;;25.22;53.27
61674;BME280;47573;43.832;5.974;2023-04-27T05:32:33;95105.97;;;25.22;53.33
61674;BME280;47573;43.832;5.974;2023-04-27T05:39:13;95100.84;;;25.26;53.06
61674;BME280;47573;43.832;5.974;2023-04-27T05:45:55;95115.91;;;25.28;52.94
61674;BME280;47573;43.832;5.974;2023-04-27T05:52:36;95114.53;;;25.31;53.16
61674;BME280;47573;43.832;5.974;2023-04-27T05:59:16;95119.75;;;25.37;52.93
61674;BME280;47573;43.832;5.974;2023-04-27T06:05:59;95120.41;;;25.44;52.67
61674;BME280;47573;43.832;5.974;2023-04-27T06:12:40;95134.09;;;25.49;52.49
61674;BME280;47573;43.832;5.974;2023-04-27T06:19:20;95138.22;;;25.52;52.55
61674;BME280;47573;43.832;5.974;2023-04-27T06:26:02;95136.88;;;25.55;52.36
61674;BME280;47573;43.832;5.974;2023-04-27T06:32:43;95134.13;;;25.55;52.56
61674;BME280;47573;43.832;5.974;2023-04-27T06:39:23;95134.16;;;25.60;49.45
61674;BME280;47573;43.832;5.974;2023-04-27T06:46:05;95135.19;;;25.48;46.98
61674;BME280;47573;43.832;5.974;2023-04-27T06:52:46;95135.47;;;25.47;46.90
61674;BME280;47573;43.832;5.974;2023-04-27T06:59:26;95134.00;;;25.39;47.07
61674;BME280;47573;43.832;5.974;2023-04-27T07:06:08;95144.72;;;25.46;46.52
61674;BME280;47573;43.832;5.974;2023-04-27T07:12:49;95136.09;;;25.64;47.88
61674;BME280;47573;43.832;5.974;2023-04-27T07:19:29;95138.88;;;25.69;48.58
61674;BME280;47573;43.832;5.974;2023-04-27T07:26:11;95143.00;;;25.72;45.45
61674;BME280;47573;43.832;5.974;2023-04-27T07:32:51;95146.28;;;25.74;45.84
61674;BME280;47573;43.832;5.974;2023-04-27T07:39:32;95146.34;;;25.84;44.85
61674;BME280;47573;43.832;5.974;2023-04-27T07:46:14;95141.44;;;25.91;46.24
61674;BME280;47573;43.832;5.974;2023-04-27T07:52:54;95149.09;;;25.89;40.72
61674;BME280;47573;43.832;5.974;2023-04-27T07:59:35;95140.69;;;26.00;40.48
61674;BME280;47573;43.832;5.974;2023-04-27T08:06:17;95134.47;;;26.10;38.60
61674;BME280;47573;43.832;5.974;2023-04-27T08:12:58;95145.22;;;26.26;37.80
61674;BME280;47573;43.832;5.974;2023-04-27T08:19:39;95144.97;;;26.33;38.02
61674;BME280;47573;43.832;5.974;2023-04-27T08:26:21;95155.91;;;26.33;41.48
61674;BME280;47573;43.832;5.974;2023-04-27T08:33:02;95157.06;;;26.42;42.91
61674;BME280;47573;43.832;5.974;2023-04-27T08:39:42;95157.56;;;26.39;43.82
61674;BME280;47573;43.832;5.974;2023-04-27T08:46:24;95158.69;;;26.38;44.38
61674;BME280;47573;43.832;5.974;2023-04-27T08:53:15;95167.44;;;26.40;44.58
61674;BME280;47573;43.832;5.974;2023-04-27T08:59:59;95163.06;;;26.44;44.62
61674;BME280;47573;43.832;5.974;2023-04-27T09:06:41;95160.34;;;26.49;44.84
61674;BME280;47573;43.832;5.974;2023-04-27T09:13:21;95168.00;;;26.47;45.29
61674;BME280;47573;43.832;5.974;2023-04-27T09:20:06;95169.09;;;26.51;45.33
61674;BME280;47573;43.832;5.974;2023-04-27T09:26:49;95169.94;;;26.52;45.50
61674;BME280;47573;43.832;5.974;2023-04-27T09:33:31;95169.66;;;26.53;45.42
61674;BME280;47573;43.832;5.974;2023-04-27T09:40:12;95160.38;;;26.54;45.72
61674;BME280;47573;43.832;5.974;2023-04-27T09:46:57;95169.69;;;26.58;45.82
61674;BME280;47573;43.832;5.974;2023-04-27T09:53:40;95172.16;;;26.60;45.82
61674;BME280;47573;43.832;5.974;2023-04-27T10:00:37;95170.78;;;26.62;46.29
61674;BME280;47573;43.832;5.974;2023-04-27T10:07:25;95171.69;;;26.83;43.26
61674;BME280;47573;43.832;5.974;2023-04-27T10:14:07;95162.09;;;26.80;42.69
61674;BME280;47573;43.832;5.974;2023-04-27T10:20:48;95160.75;;;27.03;38.47
61674;BME280;47573;43.832;5.974;2023-04-27T10:27:38;95156.94;;;26.94;37.00
61674;BME280;47573;43.832;5.974;2023-04-27T10:34:18;95156.91;;;26.84;40.13
61674;BME280;47573;43.832;5.974;2023-04-27T10:41:00;95152.25;;;26.84;41.50
61674;BME280;47573;43.832;5.974;2023-04-27T10:47:43;95152.25;;;26.84;41.78
61674;BME280;47573;43.832;5.974;2023-04-27T10:54:26;95147.59;;;26.85;41.99
61674;BME280;47573;43.832;5.974;2023-04-27T11:01:07;95138.81;;;26.83;42.46
61674;BME280;47573;43.832;5.974;2023-04-27T11:07:49;95151.72;;;26.87;42.99
61674;BME280;47573;43.832;5.974;2023-04-27T11:14:30;95149.00;;;26.92;43.08
61674;BME280;47573;43.832;5.974;2023-04-27T11:21:11;95139.66;;;26.93;43.25
61674;BME280;47573;43.832;5.974;2023-04-27T11:27:54;95142.44;;;26.98;43.55
61674;BME280;47573;43.832;5.974;2023-04-27T11:34:35;95149.81;;;27.03;43.60
61674;BME280;47573;43.832;5.974;2023-04-27T11:41:15;95130.91;;;27.06;44.05
61674;BME280;47573;43.832;5.974;2023-04-27T11:47:58;95141.88;;;27.12;44.29
61674;BME280;47573;43.832;5.974;2023-04-27T11:54:38;95145.16;;;27.14;44.12
61674;BME280;47573;43.832;5.974;2023-04-27T12:01:19;95137.22;;;27.12;44.39
61674;BME280;47573;43.832;5.974;2023-04-27T12:08:01;95130.63;;;27.18;44.58
61674;BME280;47573;43.832;5.974;2023-04-27T12:14:41;95129.81;;;27.28;44.42
61674;BME280;47573;43.832;5.974;2023-04-27T12:21:21;95130.38;;;27.25;44.66
61674;BME280;47573;43.832;5.974;2023-04-27T12:28:03;95140.78;;;27.28;44.86
61674;BME280;47573;43.832;5.974;2023-04-27T12:34:45;95133.13;;;27.30;44.87
61674;BME280;47573;43.832;5.974;2023-04-27T12:41:25;95138.59;;;27.30;45.26
61674;BME280;47573;43.832;5.974;2023-04-27T12:48:07;95141.91;;;27.37;45.39
61674;BME280;47573;43.832;5.974;2023-04-27T12:54:48;95139.16;;;27.37;45.53
61674;BME280;47573;43.832;5.974;2023-04-27T13:01:28;95135.34;;;27.38;45.61
61674;BME280;47573;43.832;5.974;2023-04-27T13:08:10;95136.97;;;27.39;45.58
61674;BME280;47573;43.832;5.974;2023-04-27T13:14:50;95141.34;;;27.35;45.83
61674;BME280;47573;43.832;5.974;2023-04-27T13:21:31;95141.88;;;27.32;46.14
61674;BME280;47573;43.832;5.974;2023-04-27T13:28:13;95149.88;;;27.38;46.36
61674;BME280;47573;43.832;5.974;2023-04-27T13:34:53;95149.03;;;27.43;46.34
61674;BME280;47573;43.832;5.974;2023-04-27T13:41:34;95147.13;;;27.38;46.40
61674;BME280;47573;43.832;5.974;2023-04-27T13:48:16;95155.91;;;27.40;46.96
61674;BME280;47573;43.832;5.974;2023-04-27T13:54:56;95149.31;;;27.46;46.90
61674;BME280;47573;43.832;5.974;2023-04-27T14:01:37;95150.13;;;27.47;46.94
61674;BME280;47573;43.832;5.974;2023-04-27T14:08:19;95135.31;;;27.48;46.95
61674;BME280;47573;43.832;5.974;2023-04-27T14:14:59;95137.53;;;27.46;47.49
61674;BME280;47573;43.832;5.974;2023-04-27T14:21:40;95138.59;;;27.50;47.30
61674;BME280;47573;43.832;5.974;2023-04-27T14:28:22;95149.00;;;27.53;47.39
61674;BME280;47573;43.832;5.974;2023-04-27T14:35:03;95148.47;;;27.56;47.73
61674;BME280;47573;43.832;5.974;2023-04-27T14:41:43;95148.75;;;27.64;47.46
61674;BME280;47573;43.832;5.974;2023-04-27T14:48:25;95158.31;;;27.72;47.62
61674;BME280;47573;43.832;5.974;2023-04-27T14:55:06;95165.22;;;27.69;47.63
61674;BME280;47573;43.832;5.974;2023-04-27T15:01:46;95168.22;;;27.73;47.89
61674;BME280;47573;43.832;5.974;2023-04-27T15:08:28;95173.16;;;27.61;48.12
61674;BME280;47573;43.832;5.974;2023-04-27T15:15:09;95168.75;;;27.75;47.97
61674;BME280;47573;43.832;5.974;2023-04-27T15:21:49;95173.66;;;27.78;48.25
61674;BME280;47573;43.832;5.974;2023-04-27T15:28:31;95175.06;;;27.75;48.35
61674;BME280;47573;43.832;5.974;2023-04-27T15:35:12;95181.09;;;27.77;48.06
61674;BME280;47573;43.832;5.974;2023-04-27T15:41:52;95183.84;;;27.72;48.64
61674;BME280;47573;43.832;5.974;2023-04-27T15:48:34;95182.47;;;27.70;48.77
61674;BME280;47573;43.832;5.974;2023-04-27T15:55:15;95175.34;;;27.79;48.65
61674;BME280;47573;43.832;5.974;2023-04-27T16:01:56;95174.25;;;27.75;48.89
61674;BME280;47573;43.832;5.974;2023-04-27T16:08:37;95181.38;;;27.71;49.12
61674;BME280;47573;43.832;5.974;2023-04-27T16:15:18;95182.44;;;27.80;48.84
61674;BME280;47573;43.832;5.974;2023-04-27T16:21:59;95177.00;;;27.50;43.73
61674;BME280;47573;43.832;5.974;2023-04-27T16:28:41;95173.72;;;27.38;43.32
61674;BME280;47573;43.832;5.974;2023-04-27T16:35:21;95172.03;;;27.27;43.77
61674;BME280;47573;43.832;5.974;2023-04-27T16:42:02;95165.97;;;27.20;43.71
61674;BME280;47573;43.832;5.974;2023-04-27T16:48:44;95169.84;;;27.19;43.86
61674;BME280;47573;43.832;5.974;2023-04-27T16:55:24;95181.91;;;27.33;45.56
61674;BME280;47573;43.832;5.974;2023-04-27T17:02:05;95187.91;;;27.20;43.54
61674;BME280;47573;43.832;5.974;2023-04-27T17:08:47;95187.91;;;27.20;44.34
61674;BME280;47573;43.832;5.974;2023-04-27T17:15:28;95194.81;;;27.37;45.40
61674;BME280;47573;43.832;5.974;2023-04-27T17:22:09;95204.97;;;27.37;46.21
61674;BME280;47573;43.832;5.974;2023-04-27T17:28:51;95202.53;;;27.40;47.01
61674;BME280;47573;43.832;5.974;2023-04-27T17:35:31;95196.47;;;27.43;47.42
61674;BME280;47573;43.832;5.974;2023-04-27T17:42:12;95209.91;;;27.45;47.54
61674;BME280;47573;43.832;5.974;2023-04-27T17:48:53;95207.16;;;27.45;48.32
61674;BME280;47573;43.832;5.974;2023-04-27T17:55:34;95212.66;;;27.45;48.54
61674;BME280;47573;43.832;5.974;2023-04-27T18:02:14;95229.94;;;27.45;48.77
61674;BME280;47573;43.832;5.974;2023-04-27T18:08:56;95230.19;;;27.39;48.99
61674;BME280;47573;43.832;5.974;2023-04-27T18:15:37;95232.38;;;27.37;49.25
61674;BME280;47573;43.832;5.974;2023-04-27T18:22:17;95236.25;;;27.36;48.59
61674;BME280;47573;43.832;5.974;2023-04-27T18:28:59;95247.41;;;27.09;46.30
61674;BME280;47573;43.832;5.974;2023-04-27T18:35:40;95255.84;;;26.97;45.48
61674;BME280;47573;43.832;5.974;2023-04-27T18:42:22;95266.75;;;26.77;44.78
61674;BME280;47573;43.832;5.974;2023-04-27T18:49:03;95262.72;;;26.38;44.40
61674;BME280;47573;43.832;5.974;2023-04-27T18:55:44;95263.81;;;26.42;45.18
61674;BME280;47573;43.832;5.974;2023-04-27T19:02:24;95279.22;;;26.58;44.46
61674;BME280;47573;43.832;5.974;2023-04-27T19:09:06;95283.72;;;26.74;45.17
61674;BME280;47573;43.832;5.974;2023-04-27T19:15:47;95286.00;;;26.92;46.70
61674;BME280;47573;43.832;5.974;2023-04-27T19:22:28;95294.75;;;26.89;47.66
61674;BME280;47573;43.832;5.974;2023-04-27T19:29:10;95297.50;;;26.99;47.86
61674;BME280;47573;43.832;5.974;2023-04-27T19:35:50;95303.00;;;26.99;48.67
61674;BME280;47573;43.832;5.974;2023-04-27T19:42:31;95325.75;;;27.00;48.88
61674;BME280;47573;43.832;5.974;2023-04-27T19:49:13;95338.66;;;27.04;48.85
61674;BME280;47573;43.832;5.974;2023-04-27T19:55:53;95346.84;;;26.99;49.28
61674;BME280;47573;43.832;5.974;2023-04-27T20:02:34;95343.53;;;26.97;49.44
61674;BME280;47573;43.832;5.974;2023-04-27T20:09:15;95352.31;;;26.99;49.50
61674;BME280;47573;43.832;5.974;2023-04-27T20:15:56;95347.72;;;27.10;49.51
61674;BME280;47573;43.832;5.974;2023-04-27T20:22:37;95360.06;;;27.13;49.60
61674;BME280;47573;43.832;5.974;2023-04-27T20:29:19;95369.88;;;27.03;50.04
61674;BME280;47573;43.832;5.974;2023-04-27T20:35:59;95373.16;;;27.00;50.33
61674;BME280;47573;43.832;5.974;2023-04-27T20:42:40;95374.25;;;26.99;50.33
61674;BME280;47573;43.832;5.974;2023-04-27T20:49:22;95368.75;;;26.99;50.45
61674;BME280;47573;43.832;5.974;2023-04-27T20:56:03;95381.91;;;26.97;50.55
61674;BME280;47573;43.832;5.974;2023-04-27T21:02:43;95381.91;;;26.97;50.69
61674;BME280;47573;43.832;5.974;2023-04-27T21:09:25;95384.66;;;26.97;50.75
61674;BME280;47573;43.832;5.974;2023-04-27T21:16:06;95388.22;;;26.98;50.54
61674;BME280;47573;43.832;5.974;2023-04-27T21:22:46;95395.06;;;26.95;50.72
61674;BME280;47573;43.832;5.974;2023-04-27T21:29:28;95387.94;;;26.94;51.22
61674;BME280;47573;43.832;5.974;2023-04-27T21:36:09;95387.94;;;26.94;51.15
61674;BME280;47573;43.832;5.974;2023-04-27T21:42:49;95399.41;;;26.91;51.43
61674;BME280;47573;43.832;5.974;2023-04-27T21:49:31;95396.41;;;26.93;51.08
61674;BME280;47573;43.832;5.974;2023-04-27T21:56:12;95412.84;;;26.93;51.43
61674;BME280;47573;43.832;5.974;2023-04-27T22:02:52;95402.72;;;26.93;51.50
61674;BME280;47573;43.832;5.974;2023-04-27T22:09:34;95406.56;;;26.92;51.58
61674;BME280;47573;43.832;5.974;2023-04-27T22:16:15;95421.34;;;26.91;51.50
61674;BME280;47573;43.832;5.974;2023-04-27T22:22:56;95431.47;;;26.91;51.51
61674;BME280;47573;43.832;5.974;2023-04-27T22:29:37;95434.47;;;26.89;51.45
61674;BME280;47573;43.832;5.974;2023-04-27T22:36:18;95435.53;;;26.83;51.63
61674;BME280;47573;43.832;5.974;2023-04-27T22:42:59;95433.91;;;26.87;51.93
61674;BME280;47573;43.832;5.974;2023-04-27T22:49:40;95431.69;;;26.84;51.85
61674;BME280;47573;43.832;5.974;2023-04-27T22:56:21;95436.88;;;26.81;52.02
61674;BME280;47573;43.832;5.974;2023-04-27T23:03:02;95442.06;;;26.77;52.18
61674;BME280;47573;43.832;5.974;2023-04-27T23:09:44;95438.25;;;26.78;52.02
61674;BME280;47573;43.832;5.974;2023-04-27T23:16:24;95438.78;;;26.75;52.26
61674;BME280;47573;43.832;5.974;2023-04-27T23:23:05;95423.41;;;26.74;52.34
61674;BME280;47573;43.832;5.974;2023-04-27T23:29:47;95429.41;;;26.71;52.48
61674;BME280;47573;43.832;5.974;2023-04-27T23:36:27;95421.19;;;26.71;52.47
61674;BME280;47573;43.832;5.974;2023-04-27T23:43:08;95423.88;;;26.66;52.63
61674;BME280;47573;43.832;5.974;2023-04-27T23:49:50;95428.81;;;26.64;52.49
61674;BME280;47573;43.832;5.974;2023-04-27T23:56:30;95439.19;;;26.62;52.76
